createdAt,value
2022-09-22T00:00:37.976Z,9.08
2022-09-22T00:01:38.028Z,9.04
2022-09-22T00:02:37.903Z,9.06
2022-09-22T00:03:37.891Z,9.06
2022-09-22T00:04:37.887Z,8.97
2022-09-22T00:05:37.868Z,9.00
2022-09-22T00:06:37.870Z,9.03
2022-09-22T00:07:37.851Z,8.95
2022-09-22T00:08:37.856Z,8.99
2022-09-22T00:09:37.827Z,8.88
2022-09-22T00:10:37.834Z,8.88
2022-09-22T00:11:37.802Z,8.82
2022-09-22T00:12:37.803Z,8.82
2022-09-22T00:13:37.780Z,8.89
2022-09-22T00:14:37.768Z,8.82
2022-09-22T00:15:37.766Z,8.84
2022-09-22T00:16:37.805Z,8.82
2022-09-22T00:17:37.734Z,8.79
2022-09-22T00:18:37.721Z,8.79
2022-09-22T00:19:37.711Z,8.81
2022-09-22T00:20:37.713Z,8.81
2022-09-22T00:21:37.716Z,8.85
2022-09-22T00:22:37.707Z,8.81
2022-09-22T00:23:37.667Z,8.79
2022-09-22T00:24:37.670Z,8.73
2022-09-22T00:25:37.648Z,8.66
2022-09-22T00:26:37.631Z,8.69
2022-09-22T00:27:37.638Z,8.67
2022-09-22T00:28:37.627Z,8.69
2022-09-22T00:29:37.615Z,8.64
2022-09-22T00:30:37.594Z,8.66
2022-09-22T00:31:37.630Z,8.55
2022-09-22T00:32:37.562Z,8.52
2022-09-22T00:33:37.578Z,8.64
2022-09-22T00:34:37.545Z,8.66
2022-09-22T00:35:37.543Z,8.69
2022-09-22T00:36:37.531Z,8.71
2022-09-22T00:37:37.525Z,8.71
2022-09-22T00:38:37.494Z,8.66
2022-09-22T00:39:37.489Z,8.56
2022-09-22T00:40:37.606Z,8.67
2022-09-22T00:41:37.487Z,8.67
2022-09-22T00:42:37.464Z,8.66
2022-09-22T00:43:37.441Z,8.64
2022-09-22T00:44:37.428Z,8.70
2022-09-22T00:45:37.425Z,8.60
2022-09-22T00:46:37.458Z,8.61
2022-09-22T00:47:37.414Z,8.63
2022-09-22T00:48:37.392Z,8.61
2022-09-22T00:49:37.377Z,8.55
2022-09-22T00:50:37.376Z,8.52
2022-09-22T00:51:37.358Z,8.53
2022-09-22T00:52:37.342Z,8.48
2022-09-22T00:53:37.341Z,8.44
2022-09-22T00:54:37.320Z,8.49
2022-09-22T00:55:37.312Z,8.48
2022-09-22T00:56:37.315Z,8.42
2022-09-22T00:57:37.293Z,8.46
2022-09-22T00:58:37.299Z,8.46
2022-09-22T00:59:37.266Z,8.41
2022-09-22T01:00:37.353Z,8.33
2022-09-22T01:01:37.279Z,8.36
2022-09-22T01:02:37.225Z,8.37
2022-09-22T01:03:37.235Z,8.41
2022-09-22T01:04:37.226Z,8.38
2022-09-22T01:05:37.201Z,8.36
2022-09-22T01:06:37.176Z,8.33
2022-09-22T01:07:37.170Z,8.41
2022-09-22T01:08:37.160Z,8.34
2022-09-22T01:09:37.157Z,8.31
2022-09-22T01:10:37.149Z,8.41
2022-09-22T01:11:37.130Z,8.33
2022-09-22T01:12:37.131Z,8.36
2022-09-22T01:13:37.104Z,8.31
2022-09-22T01:14:37.103Z,8.34
2022-09-22T01:15:37.126Z,8.31
2022-09-22T01:16:37.074Z,8.37
2022-09-22T01:17:37.057Z,8.41
2022-09-22T01:18:37.044Z,8.36
2022-09-22T01:19:37.035Z,8.38
2022-09-22T01:20:37.053Z,8.34
2022-09-22T01:21:37.037Z,8.33
2022-09-22T01:22:36.996Z,8.34
2022-09-22T01:23:36.989Z,8.31
2022-09-22T01:24:36.974Z,8.26
2022-09-22T01:25:36.969Z,8.27
2022-09-22T01:26:36.963Z,8.20
2022-09-22T01:27:36.958Z,8.15
2022-09-22T01:28:36.948Z,8.23
2022-09-22T01:29:36.929Z,8.20
2022-09-22T01:30:36.907Z,8.23
2022-09-22T01:31:36.994Z,8.19
2022-09-22T01:32:36.912Z,8.16
2022-09-22T01:33:36.881Z,8.16
2022-09-22T01:34:36.861Z,8.23
2022-09-22T01:35:36.857Z,8.15
2022-09-22T01:36:36.845Z,8.20
2022-09-22T01:37:36.845Z,8.20
2022-09-22T01:38:36.832Z,8.20
2022-09-22T01:39:36.810Z,8.13
2022-09-22T01:40:36.867Z,8.19
2022-09-22T01:41:36.783Z,8.23
2022-09-22T01:42:36.784Z,8.20
2022-09-22T01:43:36.762Z,8.19
2022-09-22T01:44:36.772Z,8.05
2022-09-22T01:45:36.743Z,8.13
2022-09-22T01:46:36.776Z,8.05
2022-09-22T01:47:36.748Z,7.98
2022-09-22T01:48:36.707Z,8.05
2022-09-22T01:49:36.697Z,8.06
2022-09-22T01:50:36.694Z,8.08
2022-09-22T01:51:36.673Z,8.03
2022-09-22T01:52:36.656Z,8.03
2022-09-22T01:53:36.658Z,7.97
2022-09-22T01:54:36.636Z,7.95
2022-09-22T01:55:36.632Z,8.00
2022-09-22T01:56:36.615Z,8.00
2022-09-22T01:57:36.625Z,8.09
2022-09-22T01:58:36.594Z,7.95
2022-09-22T01:59:36.589Z,7.93
2022-09-22T02:00:36.589Z,7.90
2022-09-22T02:01:36.696Z,7.79
2022-09-22T02:02:36.675Z,7.85
2022-09-22T02:03:36.533Z,7.79
2022-09-22T02:04:36.522Z,7.72
2022-09-22T02:05:36.516Z,7.85
2022-09-22T02:06:36.504Z,7.82
2022-09-22T02:07:36.493Z,7.69
2022-09-22T02:08:36.573Z,7.79
2022-09-22T02:09:36.487Z,7.67
2022-09-22T02:10:36.460Z,7.69
2022-09-22T02:11:36.447Z,7.76
2022-09-22T02:12:36.434Z,7.80
2022-09-22T02:13:36.432Z,7.79
2022-09-22T02:14:36.435Z,7.70
2022-09-22T02:15:36.471Z,7.77
2022-09-22T02:16:36.403Z,7.67
2022-09-22T02:17:36.378Z,7.77
2022-09-22T02:18:36.387Z,7.77
2022-09-22T02:19:36.373Z,7.67
2022-09-22T02:20:36.341Z,7.79
2022-09-22T02:21:36.328Z,7.63
2022-09-22T02:22:36.319Z,7.69
2022-09-22T02:23:36.307Z,7.66
2022-09-22T02:24:36.330Z,7.70
2022-09-22T02:25:36.284Z,7.70
2022-09-22T02:26:36.272Z,7.70
2022-09-22T02:27:36.263Z,7.61
2022-09-22T02:28:36.268Z,7.70
2022-09-22T02:29:36.236Z,7.72
2022-09-22T02:30:36.248Z,7.66
2022-09-22T02:31:36.246Z,7.63
2022-09-22T02:32:36.241Z,7.72
2022-09-22T02:33:38.285Z,7.63
2022-09-22T02:34:36.204Z,7.70
2022-09-22T02:35:36.186Z,7.66
2022-09-22T02:36:36.162Z,7.54
2022-09-22T02:37:36.144Z,7.53
2022-09-22T02:38:36.141Z,7.66
2022-09-22T02:39:36.135Z,7.58
2022-09-22T02:40:36.256Z,7.60
2022-09-22T02:41:36.118Z,7.47
2022-09-22T02:42:36.105Z,7.56
2022-09-22T02:43:36.074Z,7.40
2022-09-22T02:44:36.081Z,7.42
2022-09-22T02:45:36.051Z,7.40
2022-09-22T02:46:36.070Z,7.42
2022-09-22T02:47:36.046Z,7.40
2022-09-22T02:48:36.042Z,7.40
2022-09-22T02:49:36.026Z,7.47
2022-09-22T02:50:36.007Z,7.40
2022-09-22T02:51:35.986Z,7.36
2022-09-22T02:52:35.998Z,7.38
2022-09-22T02:53:35.988Z,7.38
2022-09-22T02:54:35.952Z,7.45
2022-09-22T02:55:35.942Z,7.43
2022-09-22T02:56:35.952Z,7.47
2022-09-22T02:57:35.916Z,7.45
2022-09-22T02:58:35.928Z,7.51
2022-09-22T02:59:35.891Z,7.43
2022-09-22T03:00:35.897Z,7.40
2022-09-22T03:01:35.910Z,7.33
2022-09-22T03:02:35.863Z,7.29
2022-09-22T03:03:35.849Z,7.31
2022-09-22T03:04:35.933Z,7.35
2022-09-22T03:05:35.825Z,7.35
2022-09-22T03:06:35.817Z,7.31
2022-09-22T03:07:35.814Z,7.32
2022-09-22T03:08:35.793Z,7.33
2022-09-22T03:09:35.797Z,7.28
2022-09-22T03:10:35.777Z,7.29
2022-09-22T03:11:35.764Z,7.28
2022-09-22T03:12:35.782Z,7.23
2022-09-22T03:13:35.735Z,7.20
2022-09-22T03:14:35.752Z,7.31
2022-09-22T03:15:35.737Z,7.24
2022-09-22T03:16:35.713Z,7.24
2022-09-22T03:17:35.702Z,7.25
2022-09-22T03:18:35.700Z,7.33
2022-09-22T03:19:35.668Z,7.35
2022-09-22T03:20:35.691Z,7.33
2022-09-22T03:21:35.659Z,7.25
2022-09-22T03:22:35.637Z,7.28
2022-09-22T03:23:35.637Z,7.28
2022-09-22T03:24:35.615Z,7.31
2022-09-22T03:25:35.612Z,7.29
2022-09-22T03:26:35.591Z,7.20
2022-09-22T03:27:35.587Z,7.25
2022-09-22T03:28:35.568Z,7.18
2022-09-22T03:29:35.584Z,7.17
2022-09-22T03:30:35.559Z,7.24
2022-09-22T03:31:35.544Z,7.07
2022-09-22T03:32:35.523Z,7.18
2022-09-22T03:33:35.512Z,7.17
2022-09-22T03:34:35.501Z,7.11
2022-09-22T03:35:35.497Z,7.00
2022-09-22T03:36:35.497Z,7.14
2022-09-22T03:37:35.478Z,7.14
2022-09-22T03:38:35.454Z,7.20
2022-09-22T03:39:35.451Z,7.18
2022-09-22T03:40:35.459Z,7.20
2022-09-22T03:41:35.417Z,7.25
2022-09-22T03:42:35.408Z,7.20
2022-09-22T03:43:35.420Z,7.23
2022-09-22T03:44:35.400Z,7.24
2022-09-22T03:45:35.373Z,7.21
2022-09-22T03:46:35.364Z,7.25
2022-09-22T03:47:35.350Z,7.11
2022-09-22T03:48:35.340Z,7.14
2022-09-22T03:49:35.359Z,7.17
2022-09-22T03:50:35.331Z,7.20
2022-09-22T03:51:35.304Z,7.18
2022-09-22T03:52:35.324Z,7.07
2022-09-22T03:53:35.278Z,7.11
2022-09-22T03:54:35.307Z,7.02
2022-09-22T03:55:35.271Z,7.00
2022-09-22T03:56:35.254Z,7.06
2022-09-22T03:57:35.281Z,7.07
2022-09-22T03:58:35.228Z,7.05
2022-09-22T03:59:35.210Z,7.05
2022-09-22T04:00:35.204Z,7.06
2022-09-22T04:01:35.243Z,7.05
2022-09-22T04:02:35.299Z,7.06
2022-09-22T04:03:35.165Z,6.99
2022-09-22T04:04:35.157Z,7.00
2022-09-22T04:05:35.150Z,7.00
2022-09-22T04:06:35.134Z,6.96
2022-09-22T04:07:35.145Z,6.92
2022-09-22T04:08:35.134Z,6.97
2022-09-22T04:09:35.097Z,6.88
2022-09-22T04:10:35.115Z,6.89
2022-09-22T04:11:35.080Z,6.87
2022-09-22T04:12:35.068Z,6.87
2022-09-22T04:13:35.056Z,6.87
2022-09-22T04:14:35.073Z,6.78
2022-09-22T04:15:35.031Z,6.84
2022-09-22T04:16:35.106Z,6.81
2022-09-22T04:17:35.009Z,6.82
2022-09-22T04:18:34.995Z,6.87
2022-09-22T04:19:34.984Z,6.78
2022-09-22T04:20:34.996Z,6.81
2022-09-22T04:21:34.975Z,6.75
2022-09-22T04:22:34.951Z,6.70
2022-09-22T04:23:34.943Z,6.69
2022-09-22T04:24:34.958Z,6.74
2022-09-22T04:25:34.915Z,6.70
2022-09-22T04:26:34.921Z,6.72
2022-09-22T04:27:34.902Z,6.67
2022-09-22T04:28:34.883Z,6.77
2022-09-22T04:29:34.875Z,6.77
2022-09-22T04:30:34.959Z,6.82
2022-09-22T04:31:34.861Z,6.74
2022-09-22T04:32:34.913Z,6.77
2022-09-22T04:33:34.852Z,6.74
2022-09-22T04:34:34.817Z,6.79
2022-09-22T04:35:34.803Z,6.75
2022-09-22T04:36:34.841Z,6.87
2022-09-22T04:37:34.778Z,6.77
2022-09-22T04:38:34.770Z,6.78
2022-09-22T04:39:34.758Z,6.66
2022-09-22T04:40:34.860Z,6.75
2022-09-22T04:41:34.752Z,6.64
2022-09-22T04:42:34.725Z,6.62
2022-09-22T04:43:34.708Z,6.63
2022-09-22T04:44:35.479Z,6.64
2022-09-22T04:45:39.386Z,6.60
2022-09-22T04:46:35.703Z,6.59
2022-09-22T04:47:34.694Z,6.51
2022-09-22T04:48:34.671Z,6.63
2022-09-22T04:49:34.653Z,6.67
2022-09-22T04:50:34.634Z,6.70
2022-09-22T04:51:34.621Z,6.70
2022-09-22T04:52:34.635Z,6.75
2022-09-22T04:53:34.609Z,6.67
2022-09-22T04:54:34.590Z,6.60
2022-09-22T04:55:34.573Z,6.63
2022-09-22T04:56:34.600Z,6.67
2022-09-22T04:57:34.673Z,6.63
2022-09-22T04:58:34.541Z,6.60
2022-09-22T04:59:34.528Z,6.66
2022-09-22T05:00:34.521Z,6.57
2022-09-22T05:01:34.642Z,6.60
2022-09-22T05:02:34.498Z,6.51
2022-09-22T05:03:34.534Z,6.59
2022-09-22T05:04:34.475Z,6.56
2022-09-22T05:05:34.458Z,6.52
2022-09-22T05:06:34.475Z,6.60
2022-09-22T05:07:34.438Z,6.67
2022-09-22T05:08:34.431Z,6.66
2022-09-22T05:09:34.438Z,6.74
2022-09-22T05:10:34.414Z,6.75
2022-09-22T05:11:34.404Z,6.75
2022-09-22T05:12:34.400Z,6.74
2022-09-22T05:13:34.365Z,6.67
2022-09-22T05:14:34.386Z,6.69
2022-09-22T05:15:34.354Z,6.70
2022-09-22T05:16:34.366Z,6.70
2022-09-22T05:17:34.325Z,6.77
2022-09-22T05:18:34.311Z,6.63
2022-09-22T05:19:34.300Z,6.60
2022-09-22T05:20:34.301Z,6.54
2022-09-22T05:21:34.274Z,6.49
2022-09-22T05:22:39.134Z,6.57
2022-09-22T05:23:35.290Z,6.60
2022-09-22T05:24:34.247Z,6.66
2022-09-22T05:25:34.245Z,6.72
2022-09-22T05:26:34.228Z,6.74
2022-09-22T05:27:34.208Z,6.70
2022-09-22T05:28:34.215Z,6.74
2022-09-22T05:29:34.222Z,6.64
2022-09-22T05:30:34.197Z,6.70
2022-09-22T05:31:34.263Z,6.62
2022-09-22T05:32:34.226Z,6.60
2022-09-22T05:33:34.137Z,6.63
2022-09-22T05:34:34.219Z,6.67
2022-09-22T05:35:36.813Z,6.69
2022-09-22T05:36:34.163Z,6.75
2022-09-22T05:37:34.091Z,6.67
2022-09-22T05:38:34.103Z,6.77
2022-09-22T05:39:34.074Z,6.69
2022-09-22T05:40:34.147Z,6.67
2022-09-22T05:41:34.087Z,6.69
2022-09-22T05:42:34.064Z,6.72
2022-09-22T05:43:34.041Z,6.75
2022-09-22T05:44:34.101Z,6.77
2022-09-22T05:45:34.151Z,6.74
2022-09-22T05:46:34.038Z,6.84
2022-09-22T05:47:33.977Z,6.79
2022-09-22T05:48:33.969Z,6.81
2022-09-22T05:49:33.957Z,6.85
2022-09-22T05:50:33.948Z,6.84
2022-09-22T05:51:33.928Z,6.81
2022-09-22T05:52:33.964Z,6.78
2022-09-22T05:53:33.911Z,6.88
2022-09-22T05:54:33.907Z,6.88
2022-09-22T05:55:33.893Z,6.89
2022-09-22T05:56:33.895Z,6.89
2022-09-22T05:57:33.865Z,6.93
2022-09-22T05:58:33.873Z,6.96
2022-09-22T05:59:33.839Z,6.88
2022-09-22T06:00:33.856Z,6.88
2022-09-22T06:01:33.882Z,6.89
2022-09-22T06:02:33.872Z,6.97
2022-09-22T06:03:33.820Z,6.93
2022-09-22T06:04:33.787Z,6.99
2022-09-22T06:05:37.056Z,6.88
2022-09-22T06:06:33.786Z,6.92
2022-09-22T06:07:33.749Z,6.88
2022-09-22T06:08:33.742Z,6.99
2022-09-22T06:09:33.756Z,6.97
2022-09-22T06:10:33.722Z,7.05
2022-09-22T06:11:33.722Z,7.03
2022-09-22T06:12:33.708Z,7.11
2022-09-22T06:13:33.685Z,7.20
2022-09-22T06:14:33.689Z,7.23
2022-09-22T06:15:33.663Z,7.17
2022-09-22T06:16:33.770Z,7.28
2022-09-22T06:17:33.650Z,7.29
2022-09-22T06:18:33.643Z,7.29
2022-09-22T06:19:33.636Z,7.36
2022-09-22T06:20:33.602Z,7.31
2022-09-22T06:21:33.615Z,7.32
2022-09-22T06:22:33.603Z,7.28
2022-09-22T06:23:33.580Z,7.39
2022-09-22T06:24:33.554Z,7.40
2022-09-22T06:25:33.553Z,7.53
2022-09-22T06:26:33.535Z,7.50
2022-09-22T06:27:33.571Z,7.50
2022-09-22T06:28:33.512Z,7.60
2022-09-22T06:29:33.508Z,7.56
2022-09-22T06:30:33.497Z,7.61
2022-09-22T06:31:33.529Z,7.54
2022-09-22T06:32:33.508Z,7.69
2022-09-22T06:33:33.467Z,7.72
2022-09-22T06:34:33.446Z,7.67
2022-09-22T06:35:33.429Z,7.76
2022-09-22T06:36:33.422Z,7.73
2022-09-22T06:37:33.425Z,7.80
2022-09-22T06:38:33.590Z,7.76
2022-09-22T06:39:33.396Z,7.87
2022-09-22T06:40:33.475Z,7.88
2022-09-22T06:41:33.362Z,7.94
2022-09-22T06:42:33.362Z,7.97
2022-09-22T06:43:33.370Z,8.12
2022-09-22T06:44:33.349Z,8.12
2022-09-22T06:45:33.469Z,8.20
2022-09-22T06:46:33.314Z,8.24
2022-09-22T06:47:33.295Z,8.37
2022-09-22T06:48:33.315Z,8.61
2022-09-22T06:49:33.278Z,8.84
2022-09-22T06:50:33.260Z,9.08
2022-09-22T06:51:33.256Z,9.25
2022-09-22T06:52:36.020Z,9.41
2022-09-22T06:53:33.255Z,9.47
2022-09-22T06:54:33.242Z,9.59
2022-09-22T06:55:33.207Z,9.95
2022-09-22T06:56:35.707Z,10.23
2022-09-22T06:57:33.184Z,10.74
2022-09-22T06:58:47.166Z,11.15
2022-09-22T06:59:34.169Z,11.70
2022-09-22T07:00:33.420Z,11.81
2022-09-22T07:01:33.245Z,11.99
2022-09-22T07:02:33.138Z,12.07
2022-09-22T07:03:33.130Z,12.20
2022-09-22T07:04:33.160Z,12.31
2022-09-22T07:05:33.094Z,12.58
2022-09-22T07:06:33.078Z,12.64
2022-09-22T07:07:33.077Z,12.58
2022-09-22T07:08:33.074Z,12.57
2022-09-22T07:09:33.058Z,12.37
2022-09-22T07:10:33.033Z,12.35
2022-09-22T07:11:37.476Z,12.32
2022-09-22T07:12:34.035Z,12.18
2022-09-22T07:13:33.016Z,12.20
2022-09-22T07:14:33.007Z,12.04
2022-09-22T07:15:32.979Z,12.03
2022-09-22T07:16:33.116Z,11.95
2022-09-22T07:17:32.981Z,11.77
2022-09-22T07:18:32.943Z,11.73
2022-09-22T07:19:32.948Z,11.62
2022-09-22T07:20:32.960Z,11.48
2022-09-22T07:21:32.925Z,11.51
2022-09-22T07:22:32.896Z,11.62
2022-09-22T07:23:32.894Z,11.70
2022-09-22T07:24:32.911Z,12.10
2022-09-22T07:25:32.866Z,12.35
2022-09-22T07:26:32.892Z,12.65
2022-09-22T07:27:32.845Z,12.86
2022-09-22T07:28:32.832Z,13.15
2022-09-22T07:29:32.843Z,13.18
2022-09-22T07:30:32.827Z,13.39
2022-09-22T07:31:32.841Z,13.57
2022-09-22T07:32:32.813Z,13.79
2022-09-22T07:33:32.794Z,14.12
2022-09-22T07:34:32.765Z,14.33
2022-09-22T07:35:32.762Z,14.50
2022-09-22T07:36:32.765Z,14.84
2022-09-22T07:37:32.747Z,14.89
2022-09-22T07:38:32.720Z,14.85
2022-09-22T07:39:32.713Z,14.82
2022-09-22T07:40:32.802Z,14.88
2022-09-22T07:41:32.694Z,14.86
2022-09-22T07:42:32.690Z,15.04
2022-09-22T07:43:32.690Z,14.94
2022-09-22T07:44:32.650Z,15.07
2022-09-22T07:45:32.646Z,14.99
2022-09-22T07:46:32.690Z,14.88
2022-09-22T07:47:32.626Z,14.78
2022-09-22T07:48:32.610Z,14.59
2022-09-22T07:49:32.639Z,14.47
2022-09-22T07:50:32.583Z,14.23
2022-09-22T07:51:32.573Z,14.10
2022-09-22T07:52:32.617Z,13.96
2022-09-22T07:53:32.569Z,13.83
2022-09-22T07:54:32.540Z,13.75
2022-09-22T07:55:32.527Z,13.79
2022-09-22T07:56:33.457Z,13.96
2022-09-22T07:57:32.524Z,13.95
2022-09-22T07:58:32.499Z,13.99
2022-09-22T07:59:32.493Z,13.96
2022-09-22T08:00:32.527Z,13.78
2022-09-22T08:01:32.477Z,13.86
2022-09-22T08:02:32.460Z,13.92
2022-09-22T08:03:39.530Z,13.93
2022-09-22T08:04:32.435Z,14.07
2022-09-22T08:05:32.418Z,14.15
2022-09-22T08:06:32.423Z,14.15
2022-09-22T08:07:32.394Z,14.25
2022-09-22T08:08:32.407Z,14.29
2022-09-22T08:09:32.369Z,14.33
2022-09-22T08:10:32.353Z,14.30
2022-09-22T08:11:32.351Z,14.36
2022-09-22T08:12:32.343Z,14.41
2022-09-22T08:13:32.324Z,14.43
2022-09-22T08:14:32.308Z,14.48
2022-09-22T08:15:32.327Z,14.48
2022-09-22T08:16:32.365Z,14.55
2022-09-22T08:17:32.288Z,14.60
2022-09-22T08:18:32.271Z,14.69
2022-09-22T08:19:32.262Z,14.62
2022-09-22T08:20:32.337Z,14.54
2022-09-22T08:21:32.250Z,14.63
2022-09-22T08:22:32.219Z,14.69
2022-09-22T08:23:32.210Z,14.70
2022-09-22T08:24:32.247Z,14.79
2022-09-22T08:25:32.217Z,14.91
2022-09-22T08:26:32.178Z,14.94
2022-09-22T08:27:32.184Z,15.04
2022-09-22T08:28:32.172Z,15.04
2022-09-22T08:29:32.150Z,15.06
2022-09-22T08:30:32.140Z,14.92
2022-09-22T08:31:32.221Z,14.97
2022-09-22T08:32:32.116Z,15.06
2022-09-22T08:33:32.125Z,15.11
2022-09-22T08:34:32.106Z,15.18
2022-09-22T08:35:32.087Z,15.19
2022-09-22T08:36:32.061Z,15.27
2022-09-22T08:37:32.065Z,15.36
2022-09-22T08:38:32.051Z,15.40
2022-09-22T08:39:32.050Z,15.31
2022-09-22T08:40:32.223Z,15.40
2022-09-22T08:41:32.031Z,15.44
2022-09-22T08:42:32.007Z,15.57
2022-09-22T08:43:31.986Z,15.51
2022-09-22T08:44:31.990Z,15.64
2022-09-22T08:45:31.972Z,15.72
2022-09-22T08:46:31.977Z,15.76
2022-09-22T08:47:31.950Z,15.73
2022-09-22T08:48:31.926Z,15.72
2022-09-22T08:49:31.987Z,15.82
2022-09-22T08:50:31.918Z,15.94
2022-09-22T08:51:31.907Z,15.84
2022-09-22T08:52:31.887Z,15.94
2022-09-22T08:53:31.874Z,15.98
2022-09-22T08:54:31.880Z,16.00
2022-09-22T08:55:31.860Z,15.98
2022-09-22T08:56:31.877Z,16.09
2022-09-22T08:57:31.836Z,16.09
2022-09-22T08:58:31.823Z,16.10
2022-09-22T08:59:31.807Z,16.24
2022-09-22T09:00:31.803Z,16.31
2022-09-22T09:01:31.819Z,16.29
2022-09-22T09:02:31.825Z,16.46
2022-09-22T09:03:31.762Z,16.42
2022-09-22T09:04:31.748Z,16.42
2022-09-22T09:05:31.755Z,16.51
2022-09-22T09:06:31.726Z,16.56
2022-09-22T09:07:31.723Z,16.78
2022-09-22T09:08:31.712Z,16.87
2022-09-22T09:09:31.717Z,16.84
2022-09-22T09:10:31.708Z,16.96
2022-09-22T09:11:31.678Z,17.09
2022-09-22T09:12:31.689Z,17.14
2022-09-22T09:13:31.662Z,17.19
2022-09-22T09:14:31.636Z,17.23
2022-09-22T09:15:31.634Z,17.23
2022-09-22T09:16:34.228Z,17.22
2022-09-22T09:17:32.628Z,17.23
2022-09-22T09:18:31.596Z,17.22
2022-09-22T09:19:31.586Z,17.26
2022-09-22T09:20:31.586Z,17.30
2022-09-22T09:21:31.565Z,17.31
2022-09-22T09:22:31.550Z,17.44
2022-09-22T09:25:32.526Z,17.57
2022-09-22T09:26:31.502Z,17.63
2022-09-22T09:27:31.500Z,17.63
2022-09-22T09:28:31.578Z,17.64
2022-09-22T09:29:31.475Z,17.63
2022-09-22T09:30:31.487Z,17.82
2022-09-22T09:31:31.519Z,17.89
2022-09-22T09:32:31.429Z,17.82
2022-09-22T09:33:31.435Z,17.92
2022-09-22T09:34:31.430Z,17.83
2022-09-22T09:35:31.420Z,17.92
2022-09-22T09:36:31.407Z,17.87
2022-09-22T09:37:31.387Z,17.89
2022-09-22T09:38:31.362Z,18.01
2022-09-22T09:39:31.358Z,18.04
2022-09-22T09:40:31.382Z,18.04
2022-09-22T09:41:31.351Z,17.98
2022-09-22T09:42:31.320Z,18.01
2022-09-22T09:43:31.313Z,18.16
2022-09-22T09:44:31.315Z,18.31
2022-09-22T09:45:31.321Z,18.20
2022-09-22T09:46:31.299Z,18.31
2022-09-22T09:47:31.279Z,18.22
2022-09-22T09:48:31.255Z,18.29
2022-09-22T09:49:31.242Z,18.45
2022-09-22T09:50:31.335Z,18.44
2022-09-22T09:51:31.219Z,18.45
2022-09-22T09:52:31.217Z,18.40
2022-09-22T09:53:31.201Z,18.44
2022-09-22T09:54:31.184Z,18.40
2022-09-22T09:55:31.183Z,18.53
2022-09-22T09:56:31.170Z,18.58
2022-09-22T09:57:31.152Z,18.74
2022-09-22T09:58:31.141Z,18.86
2022-09-22T09:59:31.137Z,18.77
2022-09-22T10:00:31.137Z,18.81
2022-09-22T10:01:31.181Z,18.81
2022-09-22T10:02:31.090Z,18.70
2022-09-22T10:03:31.147Z,18.78
2022-09-22T10:04:31.068Z,18.81
2022-09-22T10:05:31.068Z,18.93
2022-09-22T10:06:31.060Z,19.09
2022-09-22T10:08:31.025Z,19.15
2022-09-22T10:09:31.023Z,19.09
2022-09-22T10:10:31.005Z,19.14
2022-09-22T10:11:31.033Z,19.21
2022-09-22T10:12:30.978Z,19.27
2022-09-22T10:13:30.982Z,19.26
2022-09-22T10:14:30.956Z,19.26
2022-09-22T10:15:31.028Z,19.30
2022-09-22T10:16:30.977Z,19.19
2022-09-22T10:17:30.937Z,19.14
2022-09-22T10:18:30.910Z,19.04
2022-09-22T10:19:30.926Z,19.07
2022-09-22T10:20:30.889Z,19.16
2022-09-22T10:21:30.916Z,19.15
2022-09-22T10:22:30.866Z,19.07
2022-09-22T10:23:30.858Z,19.02
2022-09-22T10:24:30.852Z,19.16
2022-09-22T10:25:30.851Z,19.24
2022-09-22T10:26:30.831Z,19.39
2022-09-22T10:27:30.843Z,19.39
2022-09-22T10:28:30.792Z,19.48
2022-09-22T10:29:30.820Z,19.44
2022-09-22T10:30:30.777Z,19.54
2022-09-22T10:31:30.843Z,19.56
2022-09-22T10:32:30.783Z,19.52
2022-09-22T10:33:30.746Z,19.58
2022-09-22T10:34:30.728Z,19.49
2022-09-22T10:35:30.775Z,19.45
2022-09-22T10:36:30.710Z,19.55
2022-09-22T10:37:30.710Z,19.55
2022-09-22T10:38:30.850Z,19.62
2022-09-22T10:39:30.678Z,19.66
2022-09-22T10:40:30.714Z,19.69
2022-09-22T10:41:30.686Z,19.69
2022-09-22T10:42:30.644Z,19.62
2022-09-22T10:43:30.631Z,19.51
2022-09-22T10:44:40.086Z,19.58
2022-09-22T10:45:31.615Z,19.55
2022-09-22T10:46:30.718Z,19.71
2022-09-22T10:47:30.580Z,19.84
2022-09-22T10:48:30.590Z,19.92
2022-09-22T10:49:30.564Z,20.03
2022-09-22T10:50:30.550Z,20.07
2022-09-22T10:51:30.542Z,20.11
2022-09-22T10:52:30.539Z,20.09
2022-09-22T10:53:30.520Z,20.10
2022-09-22T10:54:30.505Z,20.14
2022-09-22T10:55:30.488Z,20.13
2022-09-22T10:56:30.476Z,20.16
2022-09-22T10:57:30.479Z,20.19
2022-09-22T10:58:30.450Z,20.21
2022-09-22T10:59:30.466Z,20.22
2022-09-22T11:00:32.195Z,20.34
2022-09-22T11:01:30.498Z,20.25
2022-09-22T11:02:30.413Z,20.25
2022-09-22T11:03:30.403Z,20.22
2022-09-22T11:04:30.514Z,20.19
2022-09-22T11:05:30.409Z,20.26
2022-09-22T11:06:30.391Z,20.29
2022-09-22T11:07:30.355Z,20.37
2022-09-22T11:08:30.383Z,20.51
2022-09-22T11:09:30.393Z,20.47
2022-09-22T11:10:30.323Z,20.39
2022-09-22T11:11:30.795Z,20.16
2022-09-22T11:12:30.305Z,20.07
2022-09-22T11:13:30.297Z,20.04
2022-09-22T11:14:30.556Z,20.16
2022-09-22T11:15:30.345Z,20.03
2022-09-22T11:16:30.268Z,20.04
2022-09-22T11:17:30.293Z,20.07
2022-09-22T11:18:30.247Z,20.09
2022-09-22T11:19:30.252Z,20.36
2022-09-22T11:20:30.231Z,20.36
2022-09-22T11:21:33.016Z,20.40
2022-09-22T11:22:30.251Z,20.26
2022-09-22T11:23:30.182Z,20.34
2022-09-22T11:24:30.181Z,20.39
2022-09-22T11:25:30.150Z,20.51
2022-09-22T11:26:30.147Z,20.58
2022-09-22T11:27:30.125Z,20.50
2022-09-22T11:28:30.132Z,20.51
2022-09-22T11:29:30.108Z,20.59
2022-09-22T11:30:30.098Z,20.63
2022-09-22T11:31:30.079Z,20.74
2022-09-22T11:32:30.072Z,20.87
2022-09-22T11:33:30.073Z,20.74
2022-09-22T11:34:30.057Z,20.62
2022-09-22T11:35:30.073Z,20.36
2022-09-22T11:36:30.067Z,20.04
2022-09-22T11:37:30.072Z,20.00
2022-09-22T11:38:30.015Z,19.84
2022-09-22T11:39:29.997Z,19.69
2022-09-22T11:40:30.057Z,19.63
2022-09-22T11:41:29.984Z,19.63
2022-09-22T11:42:30.032Z,19.40
2022-09-22T11:43:29.952Z,19.47
2022-09-22T11:44:29.962Z,19.44
2022-09-22T11:45:29.929Z,19.27
2022-09-22T11:46:29.978Z,19.37
2022-09-22T11:47:29.907Z,19.51
2022-09-22T11:48:29.915Z,19.56
2022-09-22T11:49:29.898Z,19.91
2022-09-22T11:50:29.878Z,20.03
2022-09-22T11:51:29.879Z,20.09
2022-09-22T11:52:29.870Z,20.18
2022-09-22T11:53:29.835Z,20.28
2022-09-22T11:54:29.882Z,20.44
2022-09-22T11:55:29.814Z,20.51
2022-09-22T11:56:29.801Z,20.51
2022-09-22T11:57:29.800Z,20.51
2022-09-22T11:58:29.781Z,20.52
2022-09-22T11:59:29.768Z,20.47
2022-09-22T12:00:29.793Z,20.41
2022-09-22T12:01:29.743Z,20.55
2022-09-22T12:02:29.884Z,20.69
2022-09-22T12:03:29.843Z,20.70
2022-09-22T12:04:29.721Z,20.62
2022-09-22T12:05:29.710Z,20.39
2022-09-22T12:06:29.693Z,20.18
2022-09-22T12:07:29.705Z,20.07
2022-09-22T12:08:29.740Z,20.09
2022-09-22T12:09:32.836Z,20.21
2022-09-22T12:10:30.647Z,20.34
2022-09-22T12:11:29.638Z,20.31
2022-09-22T12:12:29.627Z,20.22
2022-09-22T12:13:29.669Z,20.13
2022-09-22T12:14:29.604Z,20.04
2022-09-22T12:15:29.584Z,20.02
2022-09-22T12:16:29.591Z,20.04
2022-09-22T12:17:29.564Z,20.04
2022-09-22T12:18:29.599Z,20.19
2022-09-22T12:19:29.541Z,20.29
2022-09-22T12:20:29.536Z,20.43
2022-09-22T12:21:29.522Z,20.40
2022-09-22T12:22:29.511Z,20.40
2022-09-22T12:23:29.510Z,20.50
2022-09-22T12:24:29.526Z,20.48
2022-09-22T12:25:47.514Z,20.62
2022-09-22T12:26:30.466Z,20.77
2022-09-22T12:27:29.450Z,20.87
2022-09-22T12:28:29.453Z,20.95
2022-09-22T12:29:29.433Z,21.00
2022-09-22T12:30:29.529Z,21.17
2022-09-22T12:31:29.423Z,21.17
2022-09-22T12:32:29.408Z,21.25
2022-09-22T12:33:29.394Z,21.20
2022-09-22T12:34:29.392Z,21.32
2022-09-22T12:35:30.983Z,21.21
2022-09-22T12:36:29.374Z,21.12
2022-09-22T12:37:29.339Z,21.18
2022-09-22T12:38:29.333Z,21.03
2022-09-22T12:39:29.331Z,21.02
2022-09-22T12:40:29.368Z,21.09
2022-09-22T12:41:29.295Z,21.11
2022-09-22T12:42:29.292Z,21.02
2022-09-22T12:43:29.293Z,20.81
2022-09-22T12:44:29.291Z,20.55
2022-09-22T12:45:29.251Z,20.26
2022-09-22T12:46:29.251Z,20.10
2022-09-22T12:47:29.226Z,19.96
2022-09-22T12:48:29.218Z,19.89
2022-09-22T12:49:29.232Z,19.69
2022-09-22T12:50:29.197Z,19.64
2022-09-22T12:51:29.180Z,19.40
2022-09-22T12:52:29.176Z,19.49
2022-09-22T12:53:29.236Z,19.40
2022-09-22T12:54:29.154Z,19.59
2022-09-22T12:55:29.154Z,19.71
2022-09-22T12:56:29.148Z,19.89
2022-09-22T12:57:29.127Z,20.03
2022-09-22T12:58:29.108Z,20.07
2022-09-22T12:59:29.137Z,20.11
2022-09-22T13:00:32.085Z,20.19
2022-09-22T13:01:29.187Z,20.21
2022-09-22T13:02:29.063Z,20.32
2022-09-22T13:03:29.047Z,20.50
2022-09-22T13:04:29.049Z,20.51
2022-09-22T13:05:29.056Z,20.52
2022-09-22T13:06:29.022Z,20.36
2022-09-22T13:07:29.017Z,20.24
2022-09-22T13:08:29.000Z,20.24
2022-09-22T13:09:28.988Z,20.25